Time;durP1;ratioP1;P1;durP2;ratioP2;P2;SDS_P1;SDS_P2;PMS_P1;PMS_P2;Temp;Humidity;BMP_temperature;BMP_pressure;BME280_temperature;BME280_humidity;BME280_pressure;Samples;Min_cycle;Max_cycle;Signal;HPM_P1;HPM_P2
2022/01/20 00:00:20;;;;;;;24.30;14.05;;;3.70;99.90;;;;;;4962412;28;20029;-70
2022/01/20 00:02:56;;;;;;;23.23;11.82;;;3.80;99.90;;;;;;4958474;28;20096;-70
2022/01/20 00:08:27;;;;;;;21.48;11.18;;;3.80;99.90;;;;;;4959845;28;20407;-70
2022/01/20 00:27:27;;;;;;;20.52;10.50;;;3.70;99.90;;;;;;4966997;28;20037;-70
2022/01/20 00:32:52;;;;;;;18.98;10.60;;;3.70;99.90;;;;;;4973422;28;20774;-70
2022/01/20 00:35:25;;;;;;;19.33;10.65;;;3.80;99.90;;;;;;4979535;28;20033;-70
2022/01/20 00:37:51;;;;;;;23.58;10.93;;;3.70;99.90;;;;;;4972565;28;20902;-70
2022/01/20 00:40:17;;;;;;;20.60;11.00;;;3.70;99.90;;;;;;4974255;28;20026;-70
2022/01/20 00:42:44;;;;;;;17.65;9.82;;;3.70;99.90;;;;;;4972403;28;20062;-72
2022/01/20 00:45:10;;;;;;;21.20;10.32;;;3.60;99.90;;;;;;4972073;28;20038;-71
2022/01/20 00:47:38;;;;;;;20.40;10.10;;;3.70;99.90;;;;;;4970126;28;20480;-71
2022/01/20 00:50:05;;;;;;;17.65;9.55;;;3.60;99.90;;;;;;4966798;28;20038;-70
2022/01/20 00:52:31;;;;;;;17.40;9.23;;;3.70;99.90;;;;;;4965533;28;20062;-70
2022/01/20 00:54:57;;;;;;;20.10;9.27;;;3.70;99.90;;;;;;4974848;28;20613;-70
2022/01/20 00:57:22;;;;;;;17.70;9.00;;;3.80;99.90;;;;;;4967645;28;20023;-70
2022/01/20 00:59:48;;;;;;;17.97;9.67;;;3.80;99.90;;;;;;4971031;28;20041;-70
2022/01/20 01:02:14;;;;;;;17.33;8.90;;;3.80;99.90;;;;;;4975114;28;20468;-69
2022/01/20 01:04:41;;;;;;;14.95;9.05;;;3.90;99.90;;;;;;4967041;28;20106;-69
2022/01/20 01:09:33;;;;;;;15.07;8.98;;;3.90;99.90;;;;;;4972257;28;20034;-70
2022/01/20 01:12:03;;;;;;;13.73;8.23;;;3.90;99.90;;;;;;4973850;28;20029;-70
2022/01/20 01:14:31;;;;;;;16.70;8.73;;;3.90;99.90;;;;;;4979443;28;20019;-70
2022/01/20 01:24:37;;;;;;;;;;;3.90;99.90;;;;;;4965258;28;20582;-70
2022/01/20 01:27:04;;;;;;;15.43;8.27;;;3.90;99.90;;;;;;4970735;28;20068;-70
2022/01/20 01:32:19;;;;;;;14.95;7.93;;;3.90;99.90;;;;;;4952420;28;20089;-70
2022/01/20 01:34:51;;;;;;;15.02;8.80;;;3.90;99.90;;;;;;4968928;28;20061;-70
2022/01/20 01:39:54;;;;;;;13.85;7.70;;;4.00;99.90;;;;;;4966323;28;20058;-70
2022/01/20 01:42:26;;;;;;;14.37;7.73;;;4.00;99.90;;;;;;4971277;28;20015;-69
2022/01/20 01:44:53;;;;;;;15.00;8.13;;;4.00;99.90;;;;;;4965896;28;20935;-70
2022/01/20 01:47:19;;;;;;;13.05;7.60;;;4.00;99.90;;;;;;4972783;28;20081;-70
2022/01/20 01:49:44;;;;;;;13.70;7.27;;;4.00;99.90;;;;;;4967065;28;20030;-70
2022/01/20 01:52:10;;;;;;;14.40;7.97;;;4.00;99.90;;;;;;4971991;28;20022;-70
2022/01/20 01:54:37;;;;;;;14.10;7.57;;;4.00;99.90;;;;;;4964725;28;20022;-70
2022/01/20 01:57:06;;;;;;;14.27;7.28;;;4.00;99.90;;;;;;4968177;28;20450;-70
2022/01/20 01:59:32;;;;;;;13.77;7.10;;;4.00;99.90;;;;;;4971768;28;20461;-70
2022/01/20 02:01:58;;;;;;;;;;;4.00;99.90;;;;;;4967804;28;20061;-70
2022/01/20 02:04:24;;;;;;;11.40;6.25;;;4.00;99.90;;;;;;4961165;28;19996;-69
2022/01/20 02:20:01;;;;;;;11.75;5.82;;;4.30;99.90;;;;;;4970541;28;20033;-70
2022/01/20 02:22:27;;;;;;;9.70;5.73;;;4.30;99.90;;;;;;4966889;28;20391;-71
2022/01/20 02:24:52;;;;;;;12.10;5.73;;;4.40;99.90;;;;;;4961131;28;20106;-69
2022/01/20 02:27:18;;;;;;;11.07;6.17;;;4.50;99.90;;;;;;4966750;28;20034;-70
2022/01/20 02:29:44;;;;;;;11.27;6.63;;;4.50;99.80;;;;;;4966283;28;20528;-70
2022/01/20 02:32:11;;;;;;;11.95;6.30;;;4.50;99.60;;;;;;4963077;28;20143;-70
2022/01/20 02:34:36;;;;;;;10.25;5.68;;;4.50;99.80;;;;;;4970538;28;20120;-70
2022/01/20 02:37:07;;;;;;;10.77;6.00;;;4.50;99.60;;;;;;4968432;28;20065;-69
2022/01/20 02:44:54;;;;;;;8.95;5.53;;;4.50;99.20;;;;;;4962992;28;20040;-70
2022/01/20 02:47:22;;;;;;;10.48;5.57;;;4.50;98.80;;;;;;4965423;28;20022;-70
2022/01/20 02:49:49;;;;;;;8.98;5.55;;;4.50;99.00;;;;;;4963463;28;20435;-69
2022/01/20 02:52:14;;;;;;;9.50;5.25;;;4.50;98.80;;;;;;4969011;28;20030;-70
2022/01/20 02:54:42;;;;;;;9.30;5.37;;;4.50;98.70;;;;;;4966300;28;20438;-70
2022/01/20 02:57:08;;;;;;;9.75;5.18;;;4.50;98.70;;;;;;4966983;28;20030;-70
2022/01/20 02:59:34;;;;;;;9.23;5.20;;;4.50;98.70;;;;;;4969934;28;20042;-70
2022/01/20 03:02:01;;;;;;;8.67;4.20;;;4.50;98.40;;;;;;4965407;28;20113;-70
2022/01/20 03:04:29;;;;;;;8.38;5.13;;;4.60;98.60;;;;;;4974093;28;20528;-70
2022/01/20 03:06:55;;;;;;;10.07;5.10;;;4.60;98.40;;;;;;4967337;28;20026;-70
2022/01/20 03:09:21;;;;;;;8.30;4.50;;;4.60;98.20;;;;;;4969539;28;20030;-71
2022/01/20 03:11:48;;;;;;;7.77;4.33;;;4.60;98.00;;;;;;4959879;28;20044;-71
2022/01/20 03:14:17;;;;;;;9.32;4.88;;;4.70;97.70;;;;;;4961805;28;20069;-71
2022/01/20 03:16:44;;;;;;;7.40;4.40;;;4.70;97.60;;;;;;4966411;28;20023;-73
2022/01/20 03:19:10;;;;;;;8.32;4.70;;;4.70;97.50;;;;;;4966376;28;20381;-72
2022/01/20 03:21:36;;;;;;;9.90;4.70;;;4.70;97.70;;;;;;4968934;28;20030;-71
2022/01/20 03:24:01;;;;;;;8.27;4.77;;;4.70;97.60;;;;;;4969020;28;20081;-75
2022/01/20 03:26:27;;;;;;;9.07;5.00;;;4.70;97.70;;;;;;4969210;28;20030;-70
2022/01/20 03:28:53;;;;;;;8.57;4.57;;;4.80;97.80;;;;;;4969795;28;20038;-71
2022/01/20 03:31:18;;;;;;;8.50;5.10;;;4.80;97.80;;;;;;4966032;28;20069;-70
2022/01/20 03:33:44;;;;;;;9.43;4.73;;;4.80;97.90;;;;;;4964643;28;20034;-71
2022/01/20 03:36:10;;;;;;;6.73;4.80;;;4.80;98.00;;;;;;4970770;28;20018;-70
2022/01/20 03:38:35;;;;;;;8.40;4.27;;;4.80;97.70;;;;;;4964973;28;20014;-70
2022/01/20 03:41:01;;;;;;;7.33;4.80;;;4.70;97.60;;;;;;4969541;28;20425;-70
2022/01/20 03:43:27;;;;;;;8.83;4.00;;;4.80;97.60;;;;;;4968365;28;20030;-70
2022/01/20 03:45:56;;;;;;;8.13;4.77;;;4.80;97.60;;;;;;4967031;28;20053;-69
2022/01/20 03:48:27;;;;;;;8.30;4.78;;;4.80;97.50;;;;;;4962269;28;20023;-70
2022/01/20 03:50:59;;;;;;;7.28;4.28;;;4.90;97.30;;;;;;4962474;28;20021;-71
2022/01/20 03:53:27;;;;;;;8.13;4.68;;;4.90;97.20;;;;;;4968380;28;20473;-70
2022/01/20 03:55:52;;;;;;;8.68;4.72;;;4.90;96.90;;;;;;4963058;28;20011;-70
2022/01/20 03:58:18;;;;;;;8.00;4.43;;;4.90;97.00;;;;;;4967880;28;20586;-71
2022/01/20 04:00:44;;;;;;;9.07;5.17;;;4.90;97.00;;;;;;4955876;28;20035;-71
2022/01/20 04:03:12;;;;;;;8.00;4.28;;;4.90;96.90;;;;;;4964671;28;20367;-71
2022/01/20 04:05:47;;;;;;;7.63;4.38;;;4.90;96.80;;;;;;4967861;28;20081;-70
2022/01/20 04:08:13;;;;;;;6.60;4.15;;;4.90;96.90;;;;;;4963642;28;20117;-70
2022/01/20 04:10:38;;;;;;;10.20;4.53;;;4.90;96.90;;;;;;4963951;28;20420;-70
2022/01/20 04:13:05;;;;;;;8.33;4.30;;;4.90;97.00;;;;;;4964609;28;20019;-70
2022/01/20 04:15:38;;;;;;;6.95;4.28;;;4.90;97.00;;;;;;4965467;28;20659;-70
2022/01/20 04:18:19;;;;;;;8.10;4.18;;;4.90;97.00;;;;;;4960727;28;20541;-70
2022/01/20 04:20:45;;;;;;;8.95;4.25;;;4.90;97.00;;;;;;4957358;28;20041;-70
2022/01/20 04:23:11;;;;;;;7.70;4.40;;;5.00;96.80;;;;;;4965411;28;20081;-71
2022/01/20 04:25:37;;;;;;;7.43;4.13;;;5.00;96.80;;;;;;4964929;28;20038;-70
2022/01/20 04:28:03;;;;;;;7.43;4.13;;;5.00;96.70;;;;;;4958841;28;20117;-70
2022/01/20 04:30:29;;;;;;;9.27;4.53;;;5.00;96.70;;;;;;4962481;28;20113;-69
2022/01/20 04:32:55;;;;;;;7.75;4.40;;;5.00;96.60;;;;;;4965233;28;20364;-70
2022/01/20 04:35:23;;;;;;;8.67;4.00;;;5.00;97.00;;;;;;4965360;28;20078;-70
2022/01/20 04:37:51;;;;;;;6.28;3.78;;;5.00;97.10;;;;;;4961185;28;20822;-71
2022/01/20 04:40:18;;;;;;;7.38;4.10;;;5.00;97.20;;;;;;4968464;28;20022;-71
2022/01/20 04:42:47;;;;;;;;;;;4.90;97.30;;;;;;4962619;28;20055;-70
2022/01/20 04:45:18;;;;;;;6.18;3.70;;;4.90;97.30;;;;;;4960844;28;20275;-70
2022/01/20 04:58:23;;;;;;;7.28;4.13;;;4.80;97.90;;;;;;4968891;28;20113;-70
2022/01/20 05:00:48;;;;;;;7.32;3.92;;;4.80;98.10;;;;;;4970664;28;20034;-70
2022/01/20 05:03:14;;;;;;;6.57;3.80;;;4.80;98.10;;;;;;4967430;28;20097;-70
2022/01/20 05:05:40;;;;;;;6.93;3.83;;;4.80;98.20;;;;;;4964899;28;20112;-71
2022/01/20 05:08:06;;;;;;;6.80;3.97;;;4.80;98.10;;;;;;4965728;28;20046;-73
2022/01/20 05:10:34;;;;;;;6.30;3.83;;;4.90;98.20;;;;;;4959094;28;20091;-70
2022/01/20 05:13:06;;;;;;;6.85;3.30;;;4.80;98.30;;;;;;4968616;28;20110;-70
2022/01/20 05:15:33;;;;;;;6.57;3.55;;;4.80;98.20;;;;;;4964929;28;20018;-74
2022/01/20 05:17:59;;;;;;;5.63;3.38;;;4.90;98.30;;;;;;4974023;28;20019;-71
2022/01/20 05:20:25;;;;;;;12.80;3.42;;;4.90;98.30;;;;;;4965623;28;20427;-70
2022/01/20 05:22:52;;;;;;;5.53;3.67;;;4.90;98.20;;;;;;4975083;28;20039;-70
2022/01/20 05:25:17;;;;;;;6.05;3.40;;;4.80;98.60;;;;;;4965962;28;20065;-70
2022/01/20 05:27:43;;;;;;;5.70;3.30;;;4.90;98.30;;;;;;4971106;28;20031;-70
2022/01/20 05:30:11;;;;;;;8.17;3.80;;;4.80;98.40;;;;;;4968400;28;20472;-71
2022/01/20 05:32:38;;;;;;;5.15;3.17;;;4.80;98.50;;;;;;4972467;28;20022;-72
2022/01/20 05:35:04;;;;;;;4.88;3.00;;;4.80;98.50;;;;;;4963446;28;20050;-71
2022/01/20 05:37:30;;;;;;;5.25;3.35;;;4.80;98.70;;;;;;4961706;28;20117;-72
2022/01/20 05:39:55;;;;;;;6.33;3.83;;;4.70;98.80;;;;;;4974492;28;20727;-72
2022/01/20 05:42:21;;;;;;;6.43;3.27;;;4.70;99.00;;;;;;4976019;28;20065;-72
2022/01/20 05:44:50;;;;;;;4.67;3.30;;;4.70;98.90;;;;;;4973994;28;20132;-72
2022/01/20 05:47:25;;;;;;;5.65;3.22;;;4.70;99.00;;;;;;4972716;28;20038;-72
2022/01/20 05:49:52;;;;;;;6.47;3.83;;;4.80;99.10;;;;;;4966158;28;20066;-72
2022/01/20 05:52:19;;;;;;;;;;;4.70;99.10;;;;;;4971297;28;20034;-80
2022/01/20 05:54:45;;;;;;;5.75;3.15;;;4.70;99.30;;;;;;4965644;28;19960;-76
2022/01/20 05:57:12;;;;;;;5.40;3.13;;;4.60;99.60;;;;;;4968521;28;20050;-72
2022/01/20 05:59:39;;;;;;;6.07;3.40;;;4.60;99.80;;;;;;4972399;28;20033;-78
2022/01/20 06:02:32;;;;;;;8.32;3.30;;;4.60;99.90;;;;;;4971720;28;20073;-72
2022/01/20 06:04:52;;;;;;;7.05;3.33;;;4.60;99.90;;;;;;4970014;28;20692;-73
2022/01/20 06:07:20;;;;;;;3.97;2.72;;;4.60;99.90;;;;;;4962110;28;20070;-72
2022/01/20 06:09:46;;;;;;;5.78;3.47;;;4.60;99.90;;;;;;4968171;28;20697;-72
2022/01/20 06:12:12;;;;;;;4.65;3.10;;;4.60;99.90;;;;;;4968665;28;20122;-72
2022/01/20 06:14:39;;;;;;;4.80;3.30;;;4.60;99.90;;;;;;4966531;28;20050;-71
2022/01/20 06:17:04;;;;;;;5.60;3.17;;;4.60;99.90;;;;;;4983536;28;20027;-72
2022/01/20 06:19:30;;;;;;;4.87;2.83;;;4.50;99.90;;;;;;4973714;28;20010;-72
2022/01/20 06:21:55;;;;;;;6.30;3.23;;;4.50;99.90;;;;;;4974351;28;20072;-71
2022/01/20 06:24:21;;;;;;;4.73;2.90;;;4.50;99.90;;;;;;4974987;28;20037;-71
2022/01/20 06:26:49;;;;;;;4.87;3.00;;;4.40;99.90;;;;;;4970368;28;20428;-71
2022/01/20 06:29:14;;;;;;;7.15;3.72;;;4.50;99.90;;;;;;4972404;28;20023;-71
2022/01/20 06:31:40;;;;;;;5.53;2.90;;;4.50;99.90;;;;;;4968975;28;20029;-71
2022/01/20 06:34:07;;;;;;;6.10;3.40;;;4.60;99.90;;;;;;4971541;28;20027;-72
2022/01/20 06:36:33;;;;;;;4.60;3.05;;;4.60;99.90;;;;;;4965723;28;20578;-71
2022/01/20 06:38:59;;;;;;;3.95;2.55;;;4.60;99.90;;;;;;4970281;28;20809;-71
2022/01/20 06:41:27;;;;;;;6.40;3.47;;;4.60;99.90;;;;;;4969866;28;20045;-71
2022/01/20 06:43:53;;;;;;;5.25;3.28;;;4.60;99.90;;;;;;4979061;28;20037;-70
2022/01/20 06:46:19;;;;;;;5.53;3.00;;;4.60;99.90;;;;;;4962159;28;20034;-75
2022/01/20 06:48:46;;;;;;;;;;;4.50;99.90;;;;;;4969639;28;20036;-72
2022/01/20 06:51:12;;;;;;;4.78;3.03;;;4.40;99.90;;;;;;4964342;28;19910;-72
2022/01/20 06:53:38;;;;;;;5.13;3.50;;;4.40;99.90;;;;;;4965091;28;20039;-73
2022/01/20 06:56:04;;;;;;;4.13;3.10;;;4.40;99.90;;;;;;4970853;28;20031;-72
2022/01/20 06:58:32;;;;;;;5.10;3.30;;;4.40;99.90;;;;;;4968166;28;20046;-71
2022/01/20 07:00:57;;;;;;;5.35;3.08;;;4.30;99.90;;;;;;4961352;28;20162;-73
2022/01/20 07:03:23;;;;;;;5.53;3.00;;;4.40;99.90;;;;;;4968737;28;20097;-71
2022/01/20 07:05:48;;;;;;;4.70;3.47;;;4.40;99.90;;;;;;4969461;28;20031;-72
2022/01/20 07:08:14;;;;;;;5.97;3.53;;;4.40;99.90;;;;;;4969974;28;20026;-72
2022/01/20 07:10:40;;;;;;;5.53;3.07;;;4.30;99.90;;;;;;4965928;28;20031;-74
2022/01/20 07:13:05;;;;;;;6.47;2.90;;;4.30;99.90;;;;;;4963240;28;20030;-73
2022/01/20 07:15:34;;;;;;;5.47;3.23;;;4.40;99.90;;;;;;4968558;28;20030;-72
2022/01/20 07:18:01;;;;;;;5.18;3.42;;;4.30;99.90;;;;;;4965647;28;20018;-73
2022/01/20 07:20:26;;;;;;;5.68;3.13;;;4.40;99.90;;;;;;4971180;28;20019;-72
2022/01/20 07:22:53;;;;;;;5.43;3.00;;;4.30;99.90;;;;;;4962582;28;20046;-71
2022/01/20 07:25:19;;;;;;;5.75;3.33;;;4.30;99.90;;;;;;4967181;28;20432;-72
2022/01/20 07:27:44;;;;;;;5.67;2.83;;;4.30;99.90;;;;;;4963316;28;20042;-73
2022/01/20 07:30:11;;;;;;;3.93;2.47;;;4.30;99.90;;;;;;4973625;28;20022;-72
2022/01/20 07:32:38;;;;;;;3.90;2.83;;;4.40;99.90;;;;;;4969653;28;20026;-72
2022/01/20 07:35:04;;;;;;;4.63;2.63;;;4.40;99.90;;;;;;4966034;28;20062;-71
2022/01/20 07:37:31;;;;;;;4.82;2.88;;;4.40;99.90;;;;;;4964034;28;20113;-71
2022/01/20 07:39:56;;;;;;;5.10;3.13;;;4.30;99.90;;;;;;4966973;28;20065;-71
2022/01/20 07:42:22;;;;;;;3.00;2.63;;;4.40;99.90;;;;;;4968413;28;20050;-71
2022/01/20 07:44:48;;;;;;;5.37;3.00;;;4.30;99.90;;;;;;4970476;28;20117;-72
2022/01/20 07:47:14;;;;;;;4.60;2.67;;;4.30;99.90;;;;;;4970584;28;20030;-72
2022/01/20 07:49:39;;;;;;;4.60;2.83;;;4.30;99.90;;;;;;4964315;28;20031;-74
2022/01/20 07:52:05;;;;;;;5.30;2.47;;;4.30;99.90;;;;;;4964420;28;20022;-72
2022/01/20 07:54:31;;;;;;;3.30;2.50;;;4.30;99.90;;;;;;4969043;28;20353;-71
2022/01/20 07:56:56;;;;;;;7.30;2.43;;;4.30;99.90;;;;;;4969430;28;20064;-71
2022/01/20 07:59:24;;;;;;;4.73;2.60;;;4.40;99.90;;;;;;4963462;28;20025;-71
2022/01/20 08:01:51;;;;;;;4.68;2.65;;;4.40;99.90;;;;;;4973824;28;20167;-71
2022/01/20 08:04:18;;;;;;;3.95;2.63;;;4.40;99.90;;;;;;4967431;28;20022;-72
2022/01/20 08:06:43;;;;;;;4.03;2.50;;;4.40;99.90;;;;;;4962964;28;21125;-72
2022/01/20 08:09:09;;;;;;;4.37;2.63;;;4.40;99.90;;;;;;4967426;28;20122;-71
2022/01/20 08:11:35;;;;;;;3.63;2.33;;;4.50;99.90;;;;;;4965717;28;20030;-73
2022/01/20 08:14:00;;;;;;;4.23;2.60;;;4.50;99.90;;;;;;4968266;28;20081;-71
2022/01/20 08:16:27;;;;;;;3.57;2.50;;;4.50;99.90;;;;;;4963625;28;20026;-71
2022/01/20 08:18:56;;;;;;;4.30;3.00;;;4.40;99.90;;;;;;4968557;28;20029;-73
2022/01/20 08:21:22;;;;;;;4.43;2.58;;;4.50;99.90;;;;;;4964020;28;20038;-72
2022/01/20 08:23:48;;;;;;;4.13;2.35;;;4.50;99.90;;;;;;4969092;28;20077;-71
2022/01/20 08:26:14;;;;;;;3.30;2.37;;;4.50;99.90;;;;;;4963325;28;20042;-73
2022/01/20 08:28:39;;;;;;;4.53;2.70;;;4.50;99.90;;;;;;4964364;28;20022;-78
2022/01/20 08:31:06;;;;;;;4.00;2.30;;;4.50;99.90;;;;;;4968062;28;20531;-72
2022/01/20 08:33:32;;;;;;;3.22;1.95;;;4.50;99.90;;;;;;4960606;28;20078;-71
2022/01/20 08:35:58;;;;;;;2.87;2.23;;;4.50;99.90;;;;;;4967404;28;20030;-74
2022/01/20 08:38:24;;;;;;;4.00;2.50;;;4.50;99.90;;;;;;4964754;28;20022;-71
2022/01/20 08:40:52;;;;;;;3.50;2.47;;;4.50;99.90;;;;;;4968964;28;20100;-73
2022/01/20 08:43:19;;;;;;;3.58;2.15;;;4.50;99.90;;;;;;4973711;28;20018;-72
2022/01/20 08:45:46;;;;;;;3.83;2.33;;;4.60;99.90;;;;;;4972480;28;20102;-75
2022/01/20 08:48:13;;;;;;;3.45;2.25;;;4.50;99.90;;;;;;4969816;28;20412;-71
2022/01/20 08:50:40;;;;;;;2.58;2.00;;;4.60;99.90;;;;;;4972069;28;20019;-72
2022/01/20 08:53:06;;;;;;;3.30;2.10;;;4.60;99.90;;;;;;4974680;28;20090;-72
2022/01/20 08:55:33;;;;;;;3.63;2.57;;;4.60;99.90;;;;;;4968756;28;20141;-75
2022/01/20 08:58:00;;;;;;;3.90;2.42;;;4.60;99.90;;;;;;4974587;28;20027;-72
2022/01/20 09:00:29;;;;;;;2.63;2.17;;;4.60;99.90;;;;;;4968623;28;20022;-71
2022/01/20 09:02:58;;;;;;;5.75;2.67;;;4.70;99.90;;;;;;4972722;28;20405;-75
2022/01/20 09:05:24;;;;;;;3.47;2.25;;;4.70;99.90;;;;;;4963611;28;20885;-72
2022/01/20 09:07:51;;;;;;;3.33;2.45;;;4.70;99.90;;;;;;4972177;28;20112;-72
2022/01/20 09:10:20;;;;;;;;;;;4.70;99.90;;;;;;4971659;28;20076;-72
2022/01/20 09:15:40;;;;;;;2.67;1.88;;;4.70;99.90;;;;;;4968008;28;20100;-75
2022/01/20 09:18:08;;;;;;;2.53;1.60;;;4.70;99.90;;;;;;4970817;28;20022;-72
2022/01/20 09:20:38;;;;;;;2.80;2.00;;;4.70;99.90;;;;;;4971906;28;20467;-72
2022/01/20 09:23:05;;;;;;;4.18;2.55;;;4.70;99.90;;;;;;4971409;28;20029;-77
2022/01/20 09:25:32;;;;;;;1.85;1.63;;;4.80;99.90;;;;;;4966630;28;20022;-72
2022/01/20 09:27:59;;;;;;;3.10;2.10;;;5.50;99.90;;;;;;4963422;28;20462;-71
2022/01/20 09:30:27;;;;;;;2.55;1.80;;;6.60;99.90;;;;;;4968053;28;20023;-71
2022/01/20 09:32:59;;;;;;;3.90;2.00;;;7.40;96.90;;;;;;4970703;28;20458;-72
2022/01/20 09:35:31;;;;;;;1.85;1.45;;;7.60;94.80;;;;;;4967956;28;20054;-71
2022/01/20 09:37:58;;;;;;;2.13;1.80;;;7.50;95.00;;;;;;4968025;28;20018;-71
2022/01/20 09:40:25;;;;;;;;;;;7.20;95.40;;;;;;4970418;28;20066;-71
2022/01/20 09:42:50;;;;;;;2.20;1.80;;;7.00;96.10;;;;;;4970637;28;19913;-72
2022/01/20 09:45:16;;;;;;;1.60;1.50;;;6.80;96.70;;;;;;4971643;28;20089;-71
2022/01/20 09:47:46;;;;;;;2.20;1.50;;;6.60;97.10;;;;;;4965048;28;20026;-71
2022/01/20 09:50:15;;;;;;;2.13;1.80;;;6.40;97.40;;;;;;4974775;28;20034;-71
2022/01/20 09:52:41;;;;;;;1.70;1.52;;;6.30;97.90;;;;;;4963893;28;20034;-72
2022/01/20 09:55:08;;;;;;;2.10;1.90;;;6.10;98.70;;;;;;4973424;28;20463;-70
2022/01/20 09:57:34;;;;;;;1.75;1.40;;;6.10;99.00;;;;;;4966684;28;20113;-71
2022/01/20 10:00:03;;;;;;;2.07;1.77;;;6.00;98.90;;;;;;4973465;28;20667;-75
2022/01/20 10:02:29;;;;;;;3.22;1.77;;;5.90;98.90;;;;;;4963954;28;20023;-72
2022/01/20 10:04:56;;;;;;;3.63;2.33;;;5.90;99.20;;;;;;4964196;28;20019;-74
2022/01/20 10:07:22;;;;;;;2.22;1.80;;;5.90;99.10;;;;;;4967512;28;20172;-80
2022/01/20 10:09:49;;;;;;;2.78;1.95;;;5.90;99.00;;;;;;4961404;28;20034;-72
2022/01/20 10:12:18;;;;;;;2.45;1.77;;;5.90;99.40;;;;;;4974196;28;20039;-71
2022/01/20 10:14:50;;;;;;;3.65;2.15;;;5.90;99.30;;;;;;4967127;28;20035;-78
2022/01/20 10:17:17;;;;;;;2.92;1.63;;;6.00;99.30;;;;;;4971771;28;20045;-73
2022/01/20 10:19:43;;;;;;;2.15;1.70;;;6.10;99.20;;;;;;4968473;28;20482;-71
2022/01/20 10:22:17;;;;;;;3.33;1.88;;;6.00;99.20;;;;;;4970089;28;20056;-72
2022/01/20 10:25:03;;;;;;;2.45;1.75;;;6.00;99.30;;;;;;4959792;28;20026;-74
2022/01/20 10:27:31;;;;;;;5.28;2.03;;;6.00;99.20;;;;;;4963364;28;20034;-71
2022/01/20 10:30:06;;;;;;;2.95;1.98;;;6.00;99.20;;;;;;4971015;28;20032;-72
2022/01/20 10:32:49;;;;;;;3.35;1.77;;;5.90;99.30;;;;;;4964026;28;20022;-73
2022/01/20 10:35:17;;;;;;;2.30;1.77;;;6.20;99.10;;;;;;4966149;28;20062;-72
2022/01/20 10:38:10;;;;;;;3.28;2.13;;;6.50;98.30;;;;;;4962916;28;20015;-73
2022/01/20 10:40:57;;;;;;;2.47;2.00;;;6.90;97.80;;;;;;4962348;28;20624;-72
2022/01/20 10:43:26;;;;;;;2.50;1.65;;;7.30;96.30;;;;;;4968217;28;20026;-74
2022/01/20 10:46:10;;;;;;;2.45;1.90;;;7.70;95.50;;;;;;4964848;28;20353;-72
2022/01/20 10:48:37;;;;;;;1.73;1.50;;;8.50;93.30;;;;;;4964830;28;20050;-72
2022/01/20 10:51:13;;;;;;;3.10;2.10;;;9.20;91.60;;;;;;4972959;28;20037;-71
2022/01/20 10:53:39;;;;;;;2.55;2.00;;;9.40;90.10;;;;;;4967023;28;20046;-72
2022/01/20 10:56:06;;;;;;;2.27;2.07;;;8.80;90.50;;;;;;4973394;28;20073;-72
2022/01/20 10:58:32;;;;;;;3.85;1.85;;;8.90;91.10;;;;;;4965138;28;20026;-72
2022/01/20 11:01:00;;;;;;;3.08;1.98;;;9.30;90.20;;;;;;4958502;28;20023;-72
2022/01/20 11:03:27;;;;;;;2.72;2.00;;;10.10;86.90;;;;;;4967671;28;20026;-72
2022/01/20 11:05:56;;;;;;;3.05;2.40;;;10.60;82.60;;;;;;4965915;28;20029;-71
2022/01/20 11:08:22;;;;;;;2.03;1.70;;;11.00;79.40;;;;;;4965034;28;20050;-71
2022/01/20 11:10:50;;;;;;;2.20;1.65;;;11.10;77.90;;;;;;4965070;28;20062;-71
2022/01/20 11:13:17;;;;;;;2.17;1.70;;;10.80;77.20;;;;;;4974664;28;20022;-73
2022/01/20 11:15:43;;;;;;;2.78;2.30;;;10.00;79.90;;;;;;4964515;28;20018;-72
2022/01/20 11:18:09;;;;;;;;;;;9.50;82.50;;;;;;4975903;28;20072;-79
2022/01/20 11:20:46;;;;;;;2.90;2.05;;;8.70;87.00;;;;;;4970721;28;20515;-76
2022/01/20 11:23:14;;;;;;;4.18;2.28;;;7.90;90.90;;;;;;4965807;28;20030;-71
2022/01/20 11:25:43;;;;;;;3.05;2.08;;;7.30;93.20;;;;;;4955693;28;20717;-72
2022/01/20 11:28:17;;;;;;;2.88;1.90;;;7.30;95.20;;;;;;4973810;28;20082;-75
2022/01/20 11:30:56;;;;;;;2.40;1.95;;;7.70;94.20;;;;;;4965247;28;20413;-72
2022/01/20 11:33:32;;;;;;;5.95;2.15;;;8.00;92.20;;;;;;4967681;28;20033;-78
2022/01/20 11:35:59;;;;;;;3.22;2.00;;;8.20;91.30;;;;;;4964997;28;20030;-73
2022/01/20 11:38:47;;;;;;;3.50;2.33;;;8.40;90.90;;;;;;4965837;28;20059;-71
2022/01/20 11:41:14;;;;;;;2.53;1.70;;;8.70;90.20;;;;;;4965339;28;20030;-72
2022/01/20 11:43:53;;;;;;;1.98;1.60;;;8.90;87.10;;;;;;4963796;28;20022;-73
2022/01/20 11:46:20;;;;;;;2.45;2.13;;;9.00;86.50;;;;;;4965501;28;20030;-72
2022/01/20 11:48:58;;;;;;;3.17;1.88;;;9.00;83.80;;;;;;4967606;28;20042;-76
2022/01/20 11:51:40;;;;;;;2.53;1.70;;;8.80;84.90;;;;;;4965920;28;20117;-79
2022/01/20 11:54:08;;;;;;;3.90;1.92;;;9.00;85.20;;;;;;4964816;28;20030;-74
2022/01/20 11:56:39;;;;;;;2.63;1.88;;;9.00;82.50;;;;;;4967629;28;20037;-71
2022/01/20 11:59:06;;;;;;;3.22;2.00;;;9.10;81.30;;;;;;4966257;28;20019;-71
2022/01/20 12:01:49;;;;;;;1.55;1.40;;;9.20;79.90;;;;;;4986592;28;20111;-71
2022/01/20 12:04:15;;;;;;;4.40;1.63;;;9.00;78.70;;;;;;4964828;28;20018;-71
2022/01/20 12:06:47;;;;;;;;;;;8.90;80.00;;;;;;4967159;28;20019;-72
2022/01/20 12:09:14;;;;;;;5.00;1.88;;;8.90;79.40;;;;;;4972319;28;19948;-73
2022/01/20 12:11:46;;;;;;;2.45;1.50;;;8.80;78.70;;;;;;4972756;28;20530;-71
2022/01/20 12:14:14;;;;;;;3.72;1.60;;;8.80;79.90;;;;;;4969482;28;20492;-76
2022/01/20 12:16:40;;;;;;;2.13;1.50;;;8.80;78.90;;;;;;4961902;28;20025;-71
2022/01/20 12:19:09;;;;;;;3.10;1.50;;;8.80;78.20;;;;;;4963882;28;20019;-73
2022/01/20 12:21:36;;;;;;;2.00;1.50;;;9.00;77.90;;;;;;4964023;28;20023;-73
2022/01/20 12:24:02;;;;;;;1.85;1.50;;;8.90;77.30;;;;;;4966435;28;20029;-72
2022/01/20 12:26:34;;;;;;;5.10;1.73;;;8.90;77.70;;;;;;4966822;28;20380;-72
2022/01/20 12:29:08;;;;;;;1.80;1.27;;;8.80;78.30;;;;;;4961573;28;20022;-71
2022/01/20 12:32:10;;;;;;;2.78;1.58;;;8.60;79.80;;;;;;4958646;28;20042;-79
2022/01/20 12:34:35;;;;;;;2.67;1.50;;;8.60;80.40;;;;;;4955683;28;20031;-73
2022/01/20 12:37:02;;;;;;;2.20;1.60;;;8.70;80.50;;;;;;4961738;28;20392;-73
2022/01/20 12:39:32;;;;;;;2.10;1.70;;;8.70;80.20;;;;;;4968389;28;20046;-76
2022/01/20 12:42:02;;;;;;;2.10;1.60;;;8.60;80.30;;;;;;4957819;28;20081;-73
2022/01/20 12:44:48;;;;;;;2.80;1.52;;;8.50;81.30;;;;;;4970559;28;20023;-73
2022/01/20 12:47:16;;;;;;;1.98;1.77;;;8.10;82.80;;;;;;4963500;28;20539;-76
2022/01/20 12:49:43;;;;;;;4.18;1.90;;;7.70;85.80;;;;;;4967239;28;20034;-73
2022/01/20 12:52:10;;;;;;;3.53;1.58;;;7.50;88.00;;;;;;4966098;28;20452;-72
2022/01/20 12:54:39;;;;;;;2.85;1.75;;;7.30;89.00;;;;;;4969981;28;20030;-71
2022/01/20 12:57:07;;;;;;;2.90;1.90;;;7.10;90.00;;;;;;4958998;28;20026;-72
2022/01/20 12:59:35;;;;;;;4.22;2.40;;;7.00;90.40;;;;;;4971676;28;20018;-72
2022/01/20 13:02:07;;;;;;;2.90;1.70;;;6.90;90.90;;;;;;4967505;28;20027;-73
2022/01/20 13:04:34;;;;;;;4.90;2.05;;;6.80;91.20;;;;;;4965541;28;20440;-71
2022/01/20 13:07:02;;;;;;;3.33;1.70;;;6.70;91.30;;;;;;4966722;28;20018;-71
2022/01/20 13:09:53;;;;;;;4.40;2.10;;;6.60;91.50;;;;;;4965430;28;20033;-73
2022/01/20 13:12:30;;;;;;;1.88;1.45;;;6.60;91.60;;;;;;4969159;28;20037;-72
2022/01/20 13:14:56;;;;;;;4.05;1.88;;;6.60;91.50;;;;;;4962451;28;20027;-72
2022/01/20 13:17:23;;;;;;;2.67;1.70;;;6.60;91.60;;;;;;4964777;28;20911;-72
2022/01/20 13:19:50;;;;;;;4.53;2.00;;;6.60;91.60;;;;;;4964978;28;20023;-72
2022/01/20 13:22:24;;;;;;;3.22;1.92;;;6.60;91.70;;;;;;4963658;28;20158;-73
2022/01/20 13:24:49;;;;;;;2.05;1.77;;;6.60;91.90;;;;;;4968069;28;20700;-73
2022/01/20 13:27:15;;;;;;;4.57;2.83;;;6.50;91.80;;;;;;4961466;28;20031;-72
2022/01/20 13:29:49;;;;;;;3.30;1.73;;;6.50;92.00;;;;;;4961918;28;20022;-72
2022/01/20 13:32:15;;;;;;;1.95;1.40;;;6.40;92.00;;;;;;4962482;28;20058;-72
2022/01/20 13:35:02;;;;;;;3.00;1.85;;;6.40;92.20;;;;;;4969148;28;20490;-72
2022/01/20 13:37:31;;;;;;;2.57;1.50;;;6.40;91.70;;;;;;4967205;28;20033;-75
2022/01/20 13:39:59;;;;;;;1.90;1.50;;;6.40;91.40;;;;;;4963448;28;20050;-72
2022/01/20 13:45:14;;;;;;;3.42;1.42;;;6.30;90.80;;;;;;4962881;28;20035;-75
2022/01/20 13:47:50;;;;;;;1.92;1.50;;;6.30;90.90;;;;;;4964920;28;20631;-75
2022/01/20 13:50:26;;;;;;;4.25;1.58;;;6.40;90.80;;;;;;4970151;28;20171;-76
2022/01/20 13:52:53;;;;;;;1.73;1.20;;;6.50;90.60;;;;;;4962297;28;20045;-74
2022/01/20 13:55:24;;;;;;;1.95;1.35;;;6.50;90.10;;;;;;4967754;28;20022;-75
2022/01/20 13:57:51;;;;;;;3.33;1.50;;;6.40;90.20;;;;;;4964703;28;20023;-75
2022/01/20 14:00:21;;;;;;;2.97;1.55;;;6.50;90.10;;;;;;4968001;28;20117;-81
2022/01/20 14:02:48;;;;;;;2.45;0.90;;;6.50;89.60;;;;;;4965018;28;20031;-74
2022/01/20 14:05:16;;;;;;;10.80;1.00;;;6.30;90.00;;;;;;4965763;28;20031;-72
2022/01/20 14:07:41;;;;;;;1.60;0.70;;;5.90;90.80;;;;;;4971652;28;20046;-74
2022/01/20 14:10:07;;;;;;;1.03;0.43;;;5.30;94.50;;;;;;4967984;28;20029;-71
2022/01/20 14:12:33;;;;;;;0.83;0.43;;;4.70;98.10;;;;;;4975982;28;20034;-71
2022/01/20 14:14:59;;;;;;;0.50;0.27;;;4.10;99.90;;;;;;4963311;28;20031;-71